sensor_id;sensor_type;location;lat;lon;timestamp;P1;durP1;ratioP1;P2;durP2;ratioP2
11763;SDS011;5939;56.522;14.950;2023-02-14T00:01:34;2.13;;;1.80;;
11763;SDS011;5939;56.522;14.950;2023-02-14T00:04:00;2.63;;;1.90;;
11763;SDS011;5939;56.522;14.950;2023-02-14T00:06:27;3.53;;;2.07;;
11763;SDS011;5939;56.522;14.950;2023-02-14T00:08:56;1.73;;;1.63;;
11763;SDS011;5939;56.522;14.950;2023-02-14T00:11:22;1.90;;;1.70;;
11763;SDS011;5939;56.522;14.950;2023-02-14T00:13:47;3.07;;;1.90;;
11763;SDS011;5939;56.522;14.950;2023-02-14T00:16:31;3.00;;;1.70;;
11763;SDS011;5939;56.522;14.950;2023-02-14T00:18:57;1.70;;;1.60;;
11763;SDS011;5939;56.522;14.950;2023-02-14T00:21:31;2.70;;;1.60;;
11763;SDS011;5939;56.522;14.950;2023-02-14T00:26:38;2.67;;;1.90;;
11763;SDS011;5939;56.522;14.950;2023-02-14T00:29:04;2.40;;;1.87;;
11763;SDS011;5939;56.522;14.950;2023-02-14T00:31:31;2.33;;;1.77;;
11763;SDS011;5939;56.522;14.950;2023-02-14T00:33:57;2.03;;;1.70;;
11763;SDS011;5939;56.522;14.950;2023-02-14T00:36:23;1.97;;;1.60;;
11763;SDS011;5939;56.522;14.950;2023-02-14T00:38:49;2.83;;;1.67;;
11763;SDS011;5939;56.522;14.950;2023-02-14T00:41:15;2.70;;;1.90;;
11763;SDS011;5939;56.522;14.950;2023-02-14T00:43:50;2.60;;;1.90;;
11763;SDS011;5939;56.522;14.950;2023-02-14T00:46:17;2.37;;;1.80;;
11763;SDS011;5939;56.522;14.950;2023-02-14T00:48:44;2.50;;;1.70;;
11763;SDS011;5939;56.522;14.950;2023-02-14T00:51:10;3.37;;;1.70;;
11763;SDS011;5939;56.522;14.950;2023-02-14T00:53:37;1.60;;;1.50;;
11763;SDS011;5939;56.522;14.950;2023-02-14T00:56:03;2.00;;;1.80;;
11763;SDS011;5939;56.522;14.950;2023-02-14T00:58:29;2.17;;;1.67;;
11763;SDS011;5939;56.522;14.950;2023-02-14T01:00:55;2.70;;;1.83;;
11763;SDS011;5939;56.522;14.950;2023-02-14T01:03:21;2.00;;;1.60;;
11763;SDS011;5939;56.522;14.950;2023-02-14T01:05:47;2.40;;;1.70;;
11763;SDS011;5939;56.522;14.950;2023-02-14T01:08:13;2.10;;;1.70;;
11763;SDS011;5939;56.522;14.950;2023-02-14T01:10:39;1.87;;;1.67;;
11763;SDS011;5939;56.522;14.950;2023-02-14T01:13:05;1.90;;;1.60;;
11763;SDS011;5939;56.522;14.950;2023-02-14T01:15:31;1.63;;;1.53;;
11763;SDS011;5939;56.522;14.950;2023-02-14T01:17:58;2.23;;;1.80;;
11763;SDS011;5939;56.522;14.950;2023-02-14T01:20:24;3.13;;;2.00;;
11763;SDS011;5939;56.522;14.950;2023-02-14T01:22:51;2.10;;;1.90;;
11763;SDS011;5939;56.522;14.950;2023-02-14T01:25:17;2.13;;;1.77;;
11763;SDS011;5939;56.522;14.950;2023-02-14T01:27:42;2.07;;;1.87;;
11763;SDS011;5939;56.522;14.950;2023-02-14T01:30:08;2.10;;;1.70;;
11763;SDS011;5939;56.522;14.950;2023-02-14T01:32:35;2.40;;;1.80;;
11763;SDS011;5939;56.522;14.950;2023-02-14T01:35:01;2.13;;;1.93;;
11763;SDS011;5939;56.522;14.950;2023-02-14T01:37:28;2.27;;;1.70;;
11763;SDS011;5939;56.522;14.950;2023-02-14T01:39:54;1.90;;;1.70;;
11763;SDS011;5939;56.522;14.950;2023-02-14T01:42:20;3.47;;;2.03;;
11763;SDS011;5939;56.522;14.950;2023-02-14T01:47:12;2.70;;;1.90;;
11763;SDS011;5939;56.522;14.950;2023-02-14T01:49:48;2.00;;;1.80;;
11763;SDS011;5939;56.522;14.950;2023-02-14T01:52:19;2.10;;;1.90;;
11763;SDS011;5939;56.522;14.950;2023-02-14T01:55:00;1.90;;;1.70;;
11763;SDS011;5939;56.522;14.950;2023-02-14T01:57:34;1.97;;;1.87;;
11763;SDS011;5939;56.522;14.950;2023-02-14T02:00:06;3.13;;;1.90;;
11763;SDS011;5939;56.522;14.950;2023-02-14T02:02:51;1.60;;;1.50;;
11763;SDS011;5939;56.522;14.950;2023-02-14T02:05:17;2.00;;;1.80;;
11763;SDS011;5939;56.522;14.950;2023-02-14T02:07:48;1.90;;;1.67;;
11763;SDS011;5939;56.522;14.950;2023-02-14T02:10:16;2.10;;;1.90;;
11763;SDS011;5939;56.522;14.950;2023-02-14T02:12:42;2.37;;;1.90;;
11763;SDS011;5939;56.522;14.950;2023-02-14T02:15:08;2.03;;;1.83;;
11763;SDS011;5939;56.522;14.950;2023-02-14T02:17:46;1.80;;;1.70;;
11763;SDS011;5939;56.522;14.950;2023-02-14T02:39:02;2.10;;;1.90;;
11763;SDS011;5939;56.522;14.950;2023-02-14T02:44:26;2.17;;;1.83;;
11763;SDS011;5939;56.522;14.950;2023-02-14T02:47:09;1.80;;;1.70;;
11763;SDS011;5939;56.522;14.950;2023-02-14T02:52:41;1.70;;;1.60;;
11763;SDS011;5939;56.522;14.950;2023-02-14T02:55:44;2.63;;;1.63;;
11763;SDS011;5939;56.522;14.950;2023-02-14T03:01:12;2.03;;;1.53;;
11763;SDS011;5939;56.522;14.950;2023-02-14T03:03:45;2.03;;;1.67;;
11763;SDS011;5939;56.522;14.950;2023-02-14T03:06:32;2.10;;;1.67;;
11763;SDS011;5939;56.522;14.950;2023-02-14T03:09:08;1.70;;;1.60;;
11763;SDS011;5939;56.522;14.950;2023-02-14T03:11:45;1.73;;;1.50;;
11763;SDS011;5939;56.522;14.950;2023-02-14T03:14:25;1.70;;;1.60;;
11763;SDS011;5939;56.522;14.950;2023-02-14T03:17:15;1.90;;;1.67;;
11763;SDS011;5939;56.522;14.950;2023-02-14T03:19:46;2.50;;;1.67;;
11763;SDS011;5939;56.522;14.950;2023-02-14T03:28:11;1.93;;;1.73;;
11763;SDS011;5939;56.522;14.950;2023-02-14T03:33:52;1.87;;;1.67;;
11763;SDS011;5939;56.522;14.950;2023-02-14T03:36:38;1.60;;;1.50;;
11763;SDS011;5939;56.522;14.950;2023-02-14T03:39:15;2.60;;;1.90;;
11763;SDS011;5939;56.522;14.950;2023-02-14T03:42:29;2.83;;;1.60;;
11763;SDS011;5939;56.522;14.950;2023-02-14T03:44:42;2.33;;;1.60;;
11763;SDS011;5939;56.522;14.950;2023-02-14T03:47:13;1.97;;;1.63;;
11763;SDS011;5939;56.522;14.950;2023-02-14T03:49:47;1.87;;;1.67;;
11763;SDS011;5939;56.522;14.950;2023-02-14T03:52:17;2.17;;;1.60;;
11763;SDS011;5939;56.522;14.950;2023-02-14T03:54:45;1.80;;;1.70;;
11763;SDS011;5939;56.522;14.950;2023-02-14T03:57:27;2.33;;;2.00;;
11763;SDS011;5939;56.522;14.950;2023-02-14T04:00:03;2.30;;;1.87;;
11763;SDS011;5939;56.522;14.950;2023-02-14T04:02:40;2.03;;;1.83;;
11763;SDS011;5939;56.522;14.950;2023-02-14T04:05:18;1.67;;;1.50;;
11763;SDS011;5939;56.522;14.950;2023-02-14T04:07:52;1.90;;;1.80;;
11763;SDS011;5939;56.522;14.950;2023-02-14T04:10:19;2.03;;;1.80;;
11763;SDS011;5939;56.522;14.950;2023-02-14T04:12:46;1.80;;;1.60;;
11763;SDS011;5939;56.522;14.950;2023-02-14T04:15:12;1.57;;;1.40;;
11763;SDS011;5939;56.522;14.950;2023-02-14T04:17:38;1.90;;;1.80;;
11763;SDS011;5939;56.522;14.950;2023-02-14T04:20:22;2.20;;;1.70;;
11763;SDS011;5939;56.522;14.950;2023-02-14T04:22:48;1.87;;;1.70;;
11763;SDS011;5939;56.522;14.950;2023-02-14T04:25:16;1.93;;;1.73;;
11763;SDS011;5939;56.522;14.950;2023-02-14T04:27:42;1.83;;;1.67;;
11763;SDS011;5939;56.522;14.950;2023-02-14T04:30:08;2.07;;;1.60;;
11763;SDS011;5939;56.522;14.950;2023-02-14T04:32:36;1.90;;;1.70;;
11763;SDS011;5939;56.522;14.950;2023-02-14T04:35:03;1.80;;;1.70;;
11763;SDS011;5939;56.522;14.950;2023-02-14T04:37:29;1.77;;;1.67;;
11763;SDS011;5939;56.522;14.950;2023-02-14T04:39:54;2.20;;;1.83;;
11763;SDS011;5939;56.522;14.950;2023-02-14T04:42:20;2.67;;;1.43;;
11763;SDS011;5939;56.522;14.950;2023-02-14T04:44:46;2.13;;;1.70;;
11763;SDS011;5939;56.522;14.950;2023-02-14T04:47:11;2.00;;;1.70;;
11763;SDS011;5939;56.522;14.950;2023-02-14T04:49:37;1.70;;;1.60;;
11763;SDS011;5939;56.522;14.950;2023-02-14T04:52:03;1.73;;;1.60;;
11763;SDS011;5939;56.522;14.950;2023-02-14T04:54:29;1.90;;;1.70;;
11763;SDS011;5939;56.522;14.950;2023-02-14T04:56:55;1.90;;;1.80;;
11763;SDS011;5939;56.522;14.950;2023-02-14T04:59:21;2.00;;;1.60;;
11763;SDS011;5939;56.522;14.950;2023-02-14T05:01:47;2.13;;;1.80;;
11763;SDS011;5939;56.522;14.950;2023-02-14T05:04:13;1.80;;;1.53;;
11763;SDS011;5939;56.522;14.950;2023-02-14T05:06:39;1.60;;;1.50;;
11763;SDS011;5939;56.522;14.950;2023-02-14T05:09:04;1.67;;;1.57;;
11763;SDS011;5939;56.522;14.950;2023-02-14T05:11:30;2.10;;;1.67;;
11763;SDS011;5939;56.522;14.950;2023-02-14T05:13:56;1.60;;;1.50;;
11763;SDS011;5939;56.522;14.950;2023-02-14T05:16:22;2.03;;;1.50;;
11763;SDS011;5939;56.522;14.950;2023-02-14T05:18:47;2.00;;;1.80;;
11763;SDS011;5939;56.522;14.950;2023-02-14T05:21:13;1.97;;;1.70;;
11763;SDS011;5939;56.522;14.950;2023-02-14T05:23:39;1.80;;;1.70;;
11763;SDS011;5939;56.522;14.950;2023-02-14T05:26:05;1.80;;;1.70;;
11763;SDS011;5939;56.522;14.950;2023-02-14T05:28:31;1.50;;;1.40;;
11763;SDS011;5939;56.522;14.950;2023-02-14T05:30:57;1.77;;;1.60;;
11763;SDS011;5939;56.522;14.950;2023-02-14T05:33:23;2.33;;;1.60;;
11763;SDS011;5939;56.522;14.950;2023-02-14T05:35:49;1.77;;;1.67;;
11763;SDS011;5939;56.522;14.950;2023-02-14T05:38:16;1.90;;;1.67;;
11763;SDS011;5939;56.522;14.950;2023-02-14T05:40:42;1.93;;;1.73;;
11763;SDS011;5939;56.522;14.950;2023-02-14T05:43:07;1.50;;;1.40;;
11763;SDS011;5939;56.522;14.950;2023-02-14T05:45:33;2.57;;;2.00;;
11763;SDS011;5939;56.522;14.950;2023-02-14T05:47:59;1.97;;;1.73;;
11763;SDS011;5939;56.522;14.950;2023-02-14T05:50:25;2.33;;;1.70;;
11763;SDS011;5939;56.522;14.950;2023-02-14T05:52:50;1.80;;;1.70;;
11763;SDS011;5939;56.522;14.950;2023-02-14T05:55:16;2.53;;;1.93;;
11763;SDS011;5939;56.522;14.950;2023-02-14T05:57:42;2.60;;;1.70;;
11763;SDS011;5939;56.522;14.950;2023-02-14T06:00:08;1.90;;;1.80;;
11763;SDS011;5939;56.522;14.950;2023-02-14T06:02:34;2.10;;;1.90;;
11763;SDS011;5939;56.522;14.950;2023-02-14T06:05:00;2.43;;;1.90;;
11763;SDS011;5939;56.522;14.950;2023-02-14T06:07:25;2.63;;;2.10;;
11763;SDS011;5939;56.522;14.950;2023-02-14T06:09:51;1.60;;;1.50;;
11763;SDS011;5939;56.522;14.950;2023-02-14T06:12:17;1.70;;;1.60;;
11763;SDS011;5939;56.522;14.950;2023-02-14T06:14:42;2.13;;;1.93;;
11763;SDS011;5939;56.522;14.950;2023-02-14T06:17:09;2.00;;;1.50;;
11763;SDS011;5939;56.522;14.950;2023-02-14T06:19:35;2.03;;;1.83;;
11763;SDS011;5939;56.522;14.950;2023-02-14T06:22:00;2.00;;;1.70;;
11763;SDS011;5939;56.522;14.950;2023-02-14T06:24:27;1.90;;;1.70;;
11763;SDS011;5939;56.522;14.950;2023-02-14T06:26:52;2.20;;;1.80;;
11763;SDS011;5939;56.522;14.950;2023-02-14T06:29:18;2.00;;;1.80;;
11763;SDS011;5939;56.522;14.950;2023-02-14T06:31:44;2.17;;;1.90;;
11763;SDS011;5939;56.522;14.950;2023-02-14T06:34:09;2.07;;;1.87;;
11763;SDS011;5939;56.522;14.950;2023-02-14T06:36:35;2.37;;;2.00;;
11763;SDS011;5939;56.522;14.950;2023-02-14T06:39:01;2.50;;;2.00;;
11763;SDS011;5939;56.522;14.950;2023-02-14T06:41:27;2.10;;;1.90;;
11763;SDS011;5939;56.522;14.950;2023-02-14T06:43:53;2.37;;;2.00;;
11763;SDS011;5939;56.522;14.950;2023-02-14T06:46:19;2.63;;;2.07;;
11763;SDS011;5939;56.522;14.950;2023-02-14T06:48:44;2.13;;;1.83;;
11763;SDS011;5939;56.522;14.950;2023-02-14T06:51:10;2.17;;;1.97;;
11763;SDS011;5939;56.522;14.950;2023-02-14T06:53:36;2.20;;;2.00;;
11763;SDS011;5939;56.522;14.950;2023-02-14T06:56:02;2.73;;;2.20;;
11763;SDS011;5939;56.522;14.950;2023-02-14T06:58:29;2.13;;;1.93;;
11763;SDS011;5939;56.522;14.950;2023-02-14T07:00:55;2.00;;;1.80;;
11763;SDS011;5939;56.522;14.950;2023-02-14T07:03:22;2.90;;;1.83;;
11763;SDS011;5939;56.522;14.950;2023-02-14T07:05:48;2.33;;;2.13;;
11763;SDS011;5939;56.522;14.950;2023-02-14T07:08:13;2.20;;;2.00;;
11763;SDS011;5939;56.522;14.950;2023-02-14T07:10:40;2.43;;;2.17;;
11763;SDS011;5939;56.522;14.950;2023-02-14T07:13:05;2.50;;;2.10;;
11763;SDS011;5939;56.522;14.950;2023-02-14T07:15:31;2.30;;;2.10;;
11763;SDS011;5939;56.522;14.950;2023-02-14T07:17:57;4.20;;;1.80;;
11763;SDS011;5939;56.522;14.950;2023-02-14T07:20:23;2.67;;;2.47;;
11763;SDS011;5939;56.522;14.950;2023-02-14T07:22:49;2.80;;;2.30;;
11763;SDS011;5939;56.522;14.950;2023-02-14T07:25:15;2.63;;;2.30;;
11763;SDS011;5939;56.522;14.950;2023-02-14T07:27:41;2.40;;;2.20;;
11763;SDS011;5939;56.522;14.950;2023-02-14T07:30:07;2.90;;;2.00;;
11763;SDS011;5939;56.522;14.950;2023-02-14T07:32:35;2.20;;;2.00;;
11763;SDS011;5939;56.522;14.950;2023-02-14T07:35:02;2.37;;;2.07;;
11763;SDS011;5939;56.522;14.950;2023-02-14T07:37:27;2.10;;;1.90;;
11763;SDS011;5939;56.522;14.950;2023-02-14T07:39:53;2.53;;;2.17;;
11763;SDS011;5939;56.522;14.950;2023-02-14T07:42:19;2.83;;;2.50;;
11763;SDS011;5939;56.522;14.950;2023-02-14T07:44:44;2.23;;;2.03;;
11763;SDS011;5939;56.522;14.950;2023-02-14T07:47:10;2.30;;;2.10;;
11763;SDS011;5939;56.522;14.950;2023-02-14T07:49:36;2.50;;;2.30;;
11763;SDS011;5939;56.522;14.950;2023-02-14T07:52:02;2.23;;;2.00;;
11763;SDS011;5939;56.522;14.950;2023-02-14T07:54:28;2.30;;;2.10;;
11763;SDS011;5939;56.522;14.950;2023-02-14T07:56:54;2.67;;;2.33;;
11763;SDS011;5939;56.522;14.950;2023-02-14T07:59:20;2.27;;;2.07;;
11763;SDS011;5939;56.522;14.950;2023-02-14T08:01:46;2.80;;;2.23;;
11763;SDS011;5939;56.522;14.950;2023-02-14T08:04:11;2.30;;;2.10;;
11763;SDS011;5939;56.522;14.950;2023-02-14T08:06:40;2.40;;;2.20;;
11763;SDS011;5939;56.522;14.950;2023-02-14T08:09:06;2.27;;;1.90;;
11763;SDS011;5939;56.522;14.950;2023-02-14T08:11:34;2.40;;;2.20;;
11763;SDS011;5939;56.522;14.950;2023-02-14T08:14:21;2.73;;;2.23;;
11763;SDS011;5939;56.522;14.950;2023-02-14T08:16:47;2.23;;;2.03;;
11763;SDS011;5939;56.522;14.950;2023-02-14T08:19:13;2.57;;;2.30;;
11763;SDS011;5939;56.522;14.950;2023-02-14T08:21:38;2.53;;;2.20;;
11763;SDS011;5939;56.522;14.950;2023-02-14T08:24:04;2.43;;;2.20;;
11763;SDS011;5939;56.522;14.950;2023-02-14T08:26:30;2.37;;;2.17;;
11763;SDS011;5939;56.522;14.950;2023-02-14T08:28:56;2.80;;;2.37;;
11763;SDS011;5939;56.522;14.950;2023-02-14T08:31:22;2.47;;;2.10;;
11763;SDS011;5939;56.522;14.950;2023-02-14T08:33:53;2.40;;;2.20;;
11763;SDS011;5939;56.522;14.950;2023-02-14T08:36:19;2.33;;;2.07;;
11763;SDS011;5939;56.522;14.950;2023-02-14T08:38:44;2.43;;;2.23;;
11763;SDS011;5939;56.522;14.950;2023-02-14T08:41:12;2.70;;;2.40;;
11763;SDS011;5939;56.522;14.950;2023-02-14T08:43:42;5.47;;;2.47;;
11763;SDS011;5939;56.522;14.950;2023-02-14T08:46:09;2.47;;;2.27;;
11763;SDS011;5939;56.522;14.950;2023-02-14T08:48:36;2.50;;;2.30;;
11763;SDS011;5939;56.522;14.950;2023-02-14T08:51:05;2.40;;;2.20;;
11763;SDS011;5939;56.522;14.950;2023-02-14T08:53:36;2.53;;;2.30;;
11763;SDS011;5939;56.522;14.950;2023-02-14T08:56:07;2.70;;;2.50;;
11763;SDS011;5939;56.522;14.950;2023-02-14T08:58:34;2.80;;;2.50;;
11763;SDS011;5939;56.522;14.950;2023-02-14T09:01:01;3.13;;;2.30;;
11763;SDS011;5939;56.522;14.950;2023-02-14T09:03:31;2.93;;;2.27;;
11763;SDS011;5939;56.522;14.950;2023-02-14T09:06:01;3.53;;;2.50;;
11763;SDS011;5939;56.522;14.950;2023-02-14T09:08:31;2.70;;;2.50;;
11763;SDS011;5939;56.522;14.950;2023-02-14T09:10:59;2.93;;;2.53;;
11763;SDS011;5939;56.522;14.950;2023-02-14T09:13:34;2.40;;;2.00;;
11763;SDS011;5939;56.522;14.950;2023-02-14T09:16:06;3.87;;;2.70;;
11763;SDS011;5939;56.522;14.950;2023-02-14T09:18:34;3.10;;;2.80;;
11763;SDS011;5939;56.522;14.950;2023-02-14T09:21:00;3.13;;;2.50;;
11763;SDS011;5939;56.522;14.950;2023-02-14T09:23:25;2.57;;;2.37;;
11763;SDS011;5939;56.522;14.950;2023-02-14T09:25:58;3.27;;;2.30;;
11763;SDS011;5939;56.522;14.950;2023-02-14T09:28:25;4.30;;;2.63;;
11763;SDS011;5939;56.522;14.950;2023-02-14T09:30:51;2.63;;;2.20;;
11763;SDS011;5939;56.522;14.950;2023-02-14T09:33:16;2.83;;;2.43;;
11763;SDS011;5939;56.522;14.950;2023-02-14T09:35:42;3.37;;;2.80;;
11763;SDS011;5939;56.522;14.950;2023-02-14T09:38:26;3.87;;;2.83;;
11763;SDS011;5939;56.522;14.950;2023-02-14T09:40:51;3.03;;;2.67;;
11763;SDS011;5939;56.522;14.950;2023-02-14T09:45:56;4.57;;;2.80;;
11763;SDS011;5939;56.522;14.950;2023-02-14T09:48:27;2.40;;;2.20;;
11763;SDS011;5939;56.522;14.950;2023-02-14T09:50:57;3.37;;;2.80;;
11763;SDS011;5939;56.522;14.950;2023-02-14T09:53:31;2.33;;;2.13;;
11763;SDS011;5939;56.522;14.950;2023-02-14T09:56:07;3.00;;;2.70;;
11763;SDS011;5939;56.522;14.950;2023-02-14T10:06:48;3.27;;;2.90;;
11763;SDS011;5939;56.522;14.950;2023-02-14T10:09:42;3.20;;;2.67;;
11763;SDS011;5939;56.522;14.950;2023-02-14T10:12:44;2.87;;;2.27;;
11763;SDS011;5939;56.522;14.950;2023-02-14T10:15:26;3.33;;;2.60;;
11763;SDS011;5939;56.522;14.950;2023-02-14T10:17:57;3.10;;;2.50;;
11763;SDS011;5939;56.522;14.950;2023-02-14T10:20:43;3.70;;;2.70;;
11763;SDS011;5939;56.522;14.950;2023-02-14T10:26:01;6.77;;;3.17;;
11763;SDS011;5939;56.522;14.950;2023-02-14T10:28:39;4.00;;;3.00;;
11763;SDS011;5939;56.522;14.950;2023-02-14T10:33:52;4.10;;;3.07;;
11763;SDS011;5939;56.522;14.950;2023-02-14T10:36:24;4.33;;;2.83;;
11763;SDS011;5939;56.522;14.950;2023-02-14T10:44:39;4.20;;;3.30;;
11763;SDS011;5939;56.522;14.950;2023-02-14T10:55:25;4.30;;;3.80;;
11763;SDS011;5939;56.522;14.950;2023-02-14T10:58:13;4.63;;;2.80;;
11763;SDS011;5939;56.522;14.950;2023-02-14T11:00:50;4.50;;;3.27;;
11763;SDS011;5939;56.522;14.950;2023-02-14T11:03:32;5.13;;;3.13;;
11763;SDS011;5939;56.522;14.950;2023-02-14T11:06:00;4.70;;;3.40;;
11763;SDS011;5939;56.522;14.950;2023-02-14T11:11:02;4.00;;;3.13;;
11763;SDS011;5939;56.522;14.950;2023-02-14T11:13:37;5.63;;;3.70;;
11763;SDS011;5939;56.522;14.950;2023-02-14T11:16:05;4.93;;;3.40;;
11763;SDS011;5939;56.522;14.950;2023-02-14T11:18:33;5.10;;;3.60;;
11763;SDS011;5939;56.522;14.950;2023-02-14T11:23:30;4.07;;;3.40;;
11763;SDS011;5939;56.522;14.950;2023-02-14T11:26:02;4.97;;;3.17;;
11763;SDS011;5939;56.522;14.950;2023-02-14T11:28:31;5.07;;;3.40;;
11763;SDS011;5939;56.522;14.950;2023-02-14T11:30:58;6.47;;;3.50;;
11763;SDS011;5939;56.522;14.950;2023-02-14T11:35:57;4.33;;;3.50;;
11763;SDS011;5939;56.522;14.950;2023-02-14T11:40:58;4.80;;;3.20;;
11763;SDS011;5939;56.522;14.950;2023-02-14T11:43:34;4.90;;;3.60;;
11763;SDS011;5939;56.522;14.950;2023-02-14T11:48:57;5.97;;;3.67;;
11763;SDS011;5939;56.522;14.950;2023-02-14T11:51:27;4.03;;;3.27;;
11763;SDS011;5939;56.522;14.950;2023-02-14T11:54:02;4.37;;;3.30;;
11763;SDS011;5939;56.522;14.950;2023-02-14T11:59:25;5.07;;;3.47;;
11763;SDS011;5939;56.522;14.950;2023-02-14T12:01:57;5.87;;;3.47;;
11763;SDS011;5939;56.522;14.950;2023-02-14T12:04:34;4.37;;;3.40;;
11763;SDS011;5939;56.522;14.950;2023-02-14T12:07:15;5.43;;;3.23;;
11763;SDS011;5939;56.522;14.950;2023-02-14T12:12:35;4.47;;;3.23;;
11763;SDS011;5939;56.522;14.950;2023-02-14T12:17:45;5.90;;;3.70;;
11763;SDS011;5939;56.522;14.950;2023-02-14T12:25:41;4.87;;;3.70;;
11763;SDS011;5939;56.522;14.950;2023-02-14T12:28:36;5.53;;;3.77;;
11763;SDS011;5939;56.522;14.950;2023-02-14T12:31:10;4.27;;;3.40;;
11763;SDS011;5939;56.522;14.950;2023-02-14T12:33:37;5.47;;;3.60;;
11763;SDS011;5939;56.522;14.950;2023-02-14T12:36:08;4.00;;;3.27;;
11763;SDS011;5939;56.522;14.950;2023-02-14T12:44:22;4.33;;;3.40;;
11763;SDS011;5939;56.522;14.950;2023-02-14T12:47:18;4.63;;;3.30;;
11763;SDS011;5939;56.522;14.950;2023-02-14T12:50:14;5.67;;;3.77;;
11763;SDS011;5939;56.522;14.950;2023-02-14T12:55:52;4.47;;;3.47;;
11763;SDS011;5939;56.522;14.950;2023-02-14T13:04:11;4.90;;;3.53;;
11763;SDS011;5939;56.522;14.950;2023-02-14T13:06:56;3.73;;;3.10;;
11763;SDS011;5939;56.522;14.950;2023-02-14T13:09:43;6.20;;;3.33;;
11763;SDS011;5939;56.522;14.950;2023-02-14T13:15:03;6.17;;;3.73;;
11763;SDS011;5939;56.522;14.950;2023-02-14T13:23:22;6.43;;;3.57;;
11763;SDS011;5939;56.522;14.950;2023-02-14T13:26:25;6.00;;;3.97;;
11763;SDS011;5939;56.522;14.950;2023-02-14T13:28:57;4.00;;;3.60;;
11763;SDS011;5939;56.522;14.950;2023-02-14T13:31:27;5.27;;;3.73;;
11763;SDS011;5939;56.522;14.950;2023-02-14T13:33:56;4.07;;;3.50;;
11763;SDS011;5939;56.522;14.950;2023-02-14T13:36:25;5.87;;;3.90;;
11763;SDS011;5939;56.522;14.950;2023-02-14T13:38:53;4.47;;;3.57;;
11763;SDS011;5939;56.522;14.950;2023-02-14T13:41:20;5.80;;;3.70;;
11763;SDS011;5939;56.522;14.950;2023-02-14T13:49:44;4.73;;;3.90;;
11763;SDS011;5939;56.522;14.950;2023-02-14T13:52:09;5.03;;;3.97;;
11763;SDS011;5939;56.522;14.950;2023-02-14T13:54:47;6.27;;;4.10;;
11763;SDS011;5939;56.522;14.950;2023-02-14T13:57:24;5.57;;;4.10;;
11763;SDS011;5939;56.522;14.950;2023-02-14T14:05:56;4.30;;;3.40;;
11763;SDS011;5939;56.522;14.950;2023-02-14T14:10:57;5.40;;;3.40;;
11763;SDS011;5939;56.522;14.950;2023-02-14T14:21:31;4.97;;;4.07;;
11763;SDS011;5939;56.522;14.950;2023-02-14T14:29:49;4.90;;;4.23;;
11763;SDS011;5939;56.522;14.950;2023-02-14T14:32:19;4.60;;;3.67;;
11763;SDS011;5939;56.522;14.950;2023-02-14T14:34:52;5.57;;;4.17;;
11763;SDS011;5939;56.522;14.950;2023-02-14T14:37:21;6.43;;;4.10;;
11763;SDS011;5939;56.522;14.950;2023-02-14T14:39:51;5.83;;;4.03;;
11763;SDS011;5939;56.522;14.950;2023-02-14T14:42:18;6.87;;;4.13;;
11763;SDS011;5939;56.522;14.950;2023-02-14T14:44:52;5.93;;;4.37;;
11763;SDS011;5939;56.522;14.950;2023-02-14T14:47:22;5.97;;;4.10;;
11763;SDS011;5939;56.522;14.950;2023-02-14T14:49:52;5.10;;;4.07;;
11763;SDS011;5939;56.522;14.950;2023-02-14T14:52:33;5.60;;;4.37;;
11763;SDS011;5939;56.522;14.950;2023-02-14T14:55:02;5.27;;;4.07;;
11763;SDS011;5939;56.522;14.950;2023-02-14T14:57:31;5.43;;;4.30;;
11763;SDS011;5939;56.522;14.950;2023-02-14T15:00:06;6.00;;;4.20;;
11763;SDS011;5939;56.522;14.950;2023-02-14T15:05:28;5.57;;;4.00;;
11763;SDS011;5939;56.522;14.950;2023-02-14T15:07:57;7.07;;;4.30;;
11763;SDS011;5939;56.522;14.950;2023-02-14T15:10:37;5.57;;;4.53;;
11763;SDS011;5939;56.522;14.950;2023-02-14T15:13:03;5.53;;;4.33;;
11763;SDS011;5939;56.522;14.950;2023-02-14T15:15:47;6.10;;;4.23;;
11763;SDS011;5939;56.522;14.950;2023-02-14T15:18:15;8.33;;;4.77;;
11763;SDS011;5939;56.522;14.950;2023-02-14T15:20:42;5.03;;;4.10;;
11763;SDS011;5939;56.522;14.950;2023-02-14T15:23:17;6.63;;;4.77;;
11763;SDS011;5939;56.522;14.950;2023-02-14T15:25:46;5.00;;;4.27;;
11763;SDS011;5939;56.522;14.950;2023-02-14T15:28:34;4.63;;;4.17;;
11763;SDS011;5939;56.522;14.950;2023-02-14T15:31:02;6.37;;;4.70;;
11763;SDS011;5939;56.522;14.950;2023-02-14T15:33:29;5.93;;;4.17;;
11763;SDS011;5939;56.522;14.950;2023-02-14T15:36:04;5.67;;;4.23;;
11763;SDS011;5939;56.522;14.950;2023-02-14T15:38:34;5.50;;;4.30;;
11763;SDS011;5939;56.522;14.950;2023-02-14T15:41:04;6.30;;;4.80;;
11763;SDS011;5939;56.522;14.950;2023-02-14T15:43:32;5.60;;;4.70;;
11763;SDS011;5939;56.522;14.950;2023-02-14T15:49:04;5.90;;;4.47;;
11763;SDS011;5939;56.522;14.950;2023-02-14T15:51:34;5.60;;;4.20;;
11763;SDS011;5939;56.522;14.950;2023-02-14T15:54:03;7.37;;;4.87;;
11763;SDS011;5939;56.522;14.950;2023-02-14T15:56:43;4.27;;;3.77;;
11763;SDS011;5939;56.522;14.950;2023-02-14T16:01:50;5.03;;;4.17;;
11763;SDS011;5939;56.522;14.950;2023-02-14T16:04:22;5.03;;;4.50;;
11763;SDS011;5939;56.522;14.950;2023-02-14T16:07:05;6.83;;;4.23;;
11763;SDS011;5939;56.522;14.950;2023-02-14T16:09:46;5.27;;;4.10;;
11763;SDS011;5939;56.522;14.950;2023-02-14T16:15:00;5.63;;;4.30;;
11763;SDS011;5939;56.522;14.950;2023-02-14T16:17:33;4.80;;;3.60;;
11763;SDS011;5939;56.522;14.950;2023-02-14T16:19:59;5.53;;;3.67;;
11763;SDS011;5939;56.522;14.950;2023-02-14T16:26:01;5.27;;;3.97;;
11763;SDS011;5939;56.522;14.950;2023-02-14T16:28:27;6.87;;;4.40;;
11763;SDS011;5939;56.522;14.950;2023-02-14T16:30:55;4.60;;;3.67;;
11763;SDS011;5939;56.522;14.950;2023-02-14T16:33:26;5.20;;;3.97;;
11763;SDS011;5939;56.522;14.950;2023-02-14T16:35:54;4.70;;;4.07;;
11763;SDS011;5939;56.522;14.950;2023-02-14T16:38:25;5.87;;;4.20;;
11763;SDS011;5939;56.522;14.950;2023-02-14T16:40:51;5.40;;;4.10;;
11763;SDS011;5939;56.522;14.950;2023-02-14T16:43:18;4.43;;;3.70;;
11763;SDS011;5939;56.522;14.950;2023-02-14T16:45:45;4.90;;;4.40;;
11763;SDS011;5939;56.522;14.950;2023-02-14T16:48:11;5.13;;;4.00;;
11763;SDS011;5939;56.522;14.950;2023-02-14T16:50:39;5.07;;;3.77;;
11763;SDS011;5939;56.522;14.950;2023-02-14T16:53:09;5.23;;;3.90;;
11763;SDS011;5939;56.522;14.950;2023-02-14T16:55:57;4.77;;;3.73;;
11763;SDS011;5939;56.522;14.950;2023-02-14T16:58:24;4.57;;;3.37;;
11763;SDS011;5939;56.522;14.950;2023-02-14T17:00:55;4.20;;;3.80;;
11763;SDS011;5939;56.522;14.950;2023-02-14T17:03:22;4.33;;;3.50;;
11763;SDS011;5939;56.522;14.950;2023-02-14T17:05:47;4.73;;;4.20;;
11763;SDS011;5939;56.522;14.950;2023-02-14T17:08:13;4.57;;;3.67;;
11763;SDS011;5939;56.522;14.950;2023-02-14T17:10:40;4.83;;;3.60;;
11763;SDS011;5939;56.522;14.950;2023-02-14T17:13:08;5.47;;;4.03;;
11763;SDS011;5939;56.522;14.950;2023-02-14T17:15:35;6.37;;;4.20;;
11763;SDS011;5939;56.522;14.950;2023-02-14T17:18:04;5.57;;;4.37;;
11763;SDS011;5939;56.522;14.950;2023-02-14T17:20:33;5.00;;;4.13;;
11763;SDS011;5939;56.522;14.950;2023-02-14T17:22:59;5.40;;;3.80;;
11763;SDS011;5939;56.522;14.950;2023-02-14T17:25:25;4.47;;;3.70;;
11763;SDS011;5939;56.522;14.950;2023-02-14T17:27:51;5.00;;;3.80;;
11763;SDS011;5939;56.522;14.950;2023-02-14T17:30:16;5.43;;;3.97;;
11763;SDS011;5939;56.522;14.950;2023-02-14T17:32:42;4.90;;;4.03;;
11763;SDS011;5939;56.522;14.950;2023-02-14T17:35:09;4.77;;;3.80;;
11763;SDS011;5939;56.522;14.950;2023-02-14T17:37:36;5.47;;;3.63;;
11763;SDS011;5939;56.522;14.950;2023-02-14T17:40:02;4.43;;;3.60;;
11763;SDS011;5939;56.522;14.950;2023-02-14T17:42:30;4.93;;;3.87;;
11763;SDS011;5939;56.522;14.950;2023-02-14T17:44:57;4.53;;;3.60;;
11763;SDS011;5939;56.522;14.950;2023-02-14T17:47:22;4.57;;;4.17;;
11763;SDS011;5939;56.522;14.950;2023-02-14T17:49:48;5.57;;;3.80;;